Time;durP1;ratioP1;P1;durP2;ratioP2;P2;SDS_P1;SDS_P2;PMS_P1;PMS_P2;Temp;Humidity;BMP_temperature;BMP_pressure;BME280_temperature;BME280_humidity;BME280_pressure;Samples;Min_cycle;Max_cycle;Signal;HPM_P1;HPM_P2
2022/07/26 00:02:15;;;;;;;4.88;4.35;;;21.80;93.20;;;;;;4939055;29;20035;-71
2022/07/26 00:04:41;;;;;;;5.10;4.30;;;21.70;93.20;;;;;;4940127;28;20027;-71
2022/07/26 00:07:07;;;;;;;6.03;4.70;;;21.70;93.30;;;;;;4936035;29;20044;-71
2022/07/26 00:09:33;;;;;;;5.20;4.70;;;21.70;93.50;;;;;;4938065;28;20035;-71
2022/07/26 00:11:58;;;;;;;5.30;4.80;;;21.70;93.50;;;;;;4932238;28;20134;-70
2022/07/26 00:14:24;;;;;;;5.28;4.47;;;21.70;93.60;;;;;;4942375;29;20098;-70
2022/07/26 00:16:50;;;;;;;5.55;4.68;;;21.70;93.60;;;;;;4941678;28;20043;-71
2022/07/26 00:19:16;;;;;;;7.57;4.35;;;21.70;93.60;;;;;;4939532;28;20039;-71
2022/07/26 00:21:42;;;;;;;8.65;5.05;;;21.70;93.60;;;;;;4941453;28;20135;-71
2022/07/26 00:24:08;;;;;;;7.18;4.68;;;21.70;93.60;;;;;;4938241;28;20036;-70
2022/07/26 00:26:34;;;;;;;7.15;5.10;;;21.70;93.70;;;;;;4937966;28;20050;-70
2022/07/26 00:29:02;;;;;;;5.55;4.78;;;21.70;93.80;;;;;;4937349;29;20028;-70
2022/07/26 00:31:29;;;;;;;4.57;4.15;;;21.70;93.80;;;;;;4938030;28;20049;-70
2022/07/26 00:33:54;;;;;;;7.72;5.10;;;21.70;93.80;;;;;;4942241;28;20562;-71
2022/07/26 00:36:20;;;;;;;6.70;5.15;;;21.70;93.90;;;;;;4940433;29;20047;-70
2022/07/26 00:38:46;;;;;;;6.13;4.85;;;21.70;93.90;;;;;;4940031;28;20023;-70
2022/07/26 00:41:12;;;;;;;5.95;4.68;;;21.70;93.90;;;;;;4937075;28;20065;-71
2022/07/26 00:44:01;;;;;;;7.72;5.63;;;21.70;94.00;;;;;;4937560;28;20031;-70
2022/07/26 00:46:27;;;;;;;5.35;4.65;;;21.60;94.10;;;;;;4936622;29;20027;-71
2022/07/26 00:48:53;;;;;;;6.70;5.47;;;21.60;94.10;;;;;;4933906;29;20494;-70
2022/07/26 00:51:20;;;;;;;7.05;5.20;;;21.60;94.10;;;;;;4937301;28;20031;-70
2022/07/26 00:53:47;;;;;;;5.00;4.28;;;21.60;94.20;;;;;;4940247;29;20035;-71
2022/07/26 00:56:14;;;;;;;5.97;4.97;;;21.60;94.10;;;;;;4939331;28;20039;-71
2022/07/26 00:58:41;;;;;;;5.88;4.88;;;21.60;94.10;;;;;;4940142;28;20035;-70
2022/07/26 01:01:07;;;;;;;9.38;4.95;;;21.60;94.10;;;;;;4936040;28;20044;-70
2022/07/26 01:03:34;;;;;;;4.50;4.10;;;21.60;94.10;;;;;;4937579;28;20027;-71
2022/07/26 01:06:00;;;;;;;5.57;4.85;;;21.60;94.10;;;;;;4936949;28;20044;-70
2022/07/26 01:08:25;;;;;;;5.68;4.40;;;21.60;94.00;;;;;;4935015;29;20035;-71
2022/07/26 01:10:52;;;;;;;7.25;4.90;;;21.60;94.00;;;;;;4939010;28;20038;-70
2022/07/26 01:13:21;;;;;;;5.03;4.40;;;21.60;93.90;;;;;;4940379;28;20028;-71
2022/07/26 01:15:48;;;;;;;5.32;4.30;;;21.60;93.90;;;;;;4940425;28;20041;-70
2022/07/26 01:18:14;;;;;;;5.13;4.63;;;21.60;93.90;;;;;;4937704;28;20416;-70
2022/07/26 01:20:42;;;;;;;8.35;4.80;;;21.60;93.80;;;;;;4940723;28;20032;-70
2022/07/26 01:23:08;;;;;;;6.07;5.03;;;21.60;93.90;;;;;;4934795;28;20043;-70
2022/07/26 01:25:37;;;;;;;10.40;5.45;;;21.60;93.90;;;;;;4940481;28;20035;-70
2022/07/26 01:28:03;;;;;;;6.45;4.82;;;21.60;93.90;;;;;;4935495;29;20046;-70
2022/07/26 01:30:29;;;;;;;5.25;4.32;;;21.60;93.90;;;;;;4946102;28;20488;-70
2022/07/26 01:32:55;;;;;;;5.97;4.93;;;21.60;93.90;;;;;;4940858;29;20045;-70
2022/07/26 01:35:21;;;;;;;5.78;4.45;;;21.60;94.00;;;;;;4942711;29;20098;-70
2022/07/26 01:37:47;;;;;;;5.20;4.60;;;21.60;94.00;;;;;;4942819;28;20027;-70
2022/07/26 01:40:13;;;;;;;8.48;5.03;;;21.60;94.10;;;;;;4939414;28;20060;-70
2022/07/26 01:42:40;;;;;;;6.75;5.05;;;21.50;93.90;;;;;;4940118;28;20670;-71
2022/07/26 01:45:08;;;;;;;5.13;4.55;;;21.60;94.00;;;;;;4936027;29;20126;-71
2022/07/26 01:47:33;;;;;;;7.95;4.82;;;21.50;94.00;;;;;;4943040;29;20046;-70
2022/07/26 01:49:59;;;;;;;8.25;5.00;;;21.60;93.90;;;;;;4945449;28;20043;-71
2022/07/26 01:52:26;;;;;;;6.65;4.90;;;21.60;93.80;;;;;;4942987;29;20571;-70
2022/07/26 01:54:52;;;;;;;5.32;4.55;;;21.60;93.80;;;;;;4943197;28;20046;-70
2022/07/26 01:57:17;;;;;;;5.32;4.50;;;21.60;93.70;;;;;;4940411;29;20051;-71
2022/07/26 01:59:43;;;;;;;5.80;4.93;;;21.50;93.80;;;;;;4943224;28;20031;-70
2022/07/26 02:02:09;;;;;;;5.93;4.18;;;21.50;93.80;;;;;;4938858;29;20066;-71
2022/07/26 02:07:19;;;;;;;6.07;4.93;;;21.40;93.80;;;;;;4945161;29;20407;-71
2022/07/26 02:09:44;;;;;;;5.05;4.07;;;21.40;93.90;;;;;;4945121;28;20042;-70
2022/07/26 02:12:10;;;;;;;7.50;4.88;;;21.40;93.90;;;;;;4945165;29;20043;-70
2022/07/26 02:14:36;;;;;;;7.38;4.90;;;21.30;93.80;;;;;;4943243;28;20027;-70
2022/07/26 02:17:02;;;;;;;10.20;4.80;;;21.30;93.80;;;;;;4941900;28;20102;-71
2022/07/26 02:19:28;;;;;;;5.43;4.80;;;21.20;93.80;;;;;;4940547;29;20122;-71
2022/07/26 02:21:55;;;;;;;6.28;4.47;;;21.10;93.80;;;;;;4937096;28;20038;-70
2022/07/26 02:24:20;;;;;;;8.25;4.85;;;21.10;93.80;;;;;;4937453;29;20062;-70
2022/07/26 02:26:46;;;;;;;5.72;4.63;;;21.00;93.90;;;;;;4945817;29;20062;-70
2022/07/26 02:29:12;;;;;;;7.10;5.22;;;21.00;94.00;;;;;;4943602;29;20063;-70
2022/07/26 02:31:38;;;;;;;5.22;4.65;;;20.90;94.00;;;;;;4944100;28;20054;-71
2022/07/26 02:34:03;;;;;;;7.85;5.05;;;20.90;94.10;;;;;;4940155;28;20583;-71
2022/07/26 02:36:29;;;;;;;7.82;5.22;;;20.80;94.10;;;;;;4942904;29;20042;-70
2022/07/26 02:38:55;;;;;;;8.90;5.30;;;20.80;94.10;;;;;;4938665;29;20024;-70
2022/07/26 02:41:21;;;;;;;5.40;4.78;;;20.70;94.10;;;;;;4937635;28;20103;-70
2022/07/26 02:43:46;;;;;;;7.78;4.85;;;20.70;94.20;;;;;;4938175;28;20039;-70
2022/07/26 02:46:12;;;;;;;7.18;5.18;;;20.60;94.10;;;;;;4944803;28;20420;-71
2022/07/26 02:48:38;;;;;;;11.13;5.65;;;20.60;94.10;;;;;;4945250;28;20105;-70
2022/07/26 02:51:04;;;;;;;6.43;4.22;;;20.60;94.10;;;;;;4941905;28;20548;-70
2022/07/26 02:53:29;;;;;;;9.15;5.28;;;20.50;94.10;;;;;;4940679;29;20042;-70
2022/07/26 02:55:55;;;;;;;8.45;4.85;;;20.50;94.20;;;;;;4938122;28;20121;-70
2022/07/26 02:58:23;;;;;;;6.57;4.95;;;20.50;94.30;;;;;;4938407;29;20055;-70
2022/07/26 03:00:49;;;;;;;6.85;5.43;;;20.40;94.30;;;;;;4936939;28;20176;-70
2022/07/26 03:03:15;;;;;;;7.97;5.28;;;20.40;94.40;;;;;;4938781;29;20043;-70
2022/07/26 03:05:41;;;;;;;8.23;5.15;;;20.40;94.40;;;;;;4944197;28;20063;-70
2022/07/26 03:08:07;;;;;;;6.68;5.07;;;20.30;94.30;;;;;;4942013;29;20126;-70
2022/07/26 03:10:33;;;;;;;5.55;4.85;;;20.30;94.30;;;;;;4941895;28;20564;-70
2022/07/26 03:12:58;;;;;;;9.05;4.82;;;20.30;94.40;;;;;;4939212;28;20047;-70
2022/07/26 03:15:24;;;;;;;7.13;4.75;;;20.30;94.50;;;;;;4938971;29;20032;-70
2022/07/26 03:17:50;;;;;;;7.25;5.38;;;20.20;94.50;;;;;;4937686;29;20035;-70
2022/07/26 03:20:16;;;;;;;8.15;5.35;;;20.20;94.50;;;;;;4935486;28;20131;-70
2022/07/26 03:22:42;;;;;;;7.05;4.53;;;20.20;94.40;;;;;;4940232;28;20027;-70
2022/07/26 03:25:08;;;;;;;6.20;5.15;;;20.10;94.40;;;;;;4942489;28;20042;-70
2022/07/26 03:27:34;;;;;;;6.57;4.28;;;20.10;94.30;;;;;;4942601;28;20035;-70
2022/07/26 03:30:00;;;;;;;5.57;4.70;;;20.10;94.30;;;;;;4941610;28;20074;-70
2022/07/26 03:32:26;;;;;;;7.57;4.57;;;20.10;94.30;;;;;;4939192;28;20090;-70
2022/07/26 03:34:51;;;;;;;7.60;4.93;;;20.10;94.20;;;;;;4937973;28;20034;-70
2022/07/26 03:37:17;;;;;;;6.10;4.15;;;20.00;94.10;;;;;;4935848;29;20078;-70
2022/07/26 03:39:43;;;;;;;6.68;4.15;;;20.00;94.00;;;;;;4941880;28;20031;-71
2022/07/26 03:42:09;;;;;;;7.90;4.28;;;20.00;94.00;;;;;;4940081;29;20059;-70
2022/07/26 03:44:35;;;;;;;5.63;4.07;;;19.90;93.90;;;;;;4942576;28;20042;-71
2022/07/26 03:47:01;;;;;;;6.22;4.13;;;19.90;94.00;;;;;;4940456;28;20035;-71
2022/07/26 03:49:27;;;;;;;6.70;4.00;;;19.90;94.10;;;;;;4942204;29;20541;-70
2022/07/26 03:51:54;;;;;;;4.65;4.07;;;19.80;94.10;;;;;;4937845;28;20035;-71
2022/07/26 03:54:20;;;;;;;6.32;3.83;;;19.80;94.00;;;;;;4936347;29;20047;-70
2022/07/26 03:56:46;;;;;;;7.60;4.38;;;19.80;94.10;;;;;;4936069;29;20109;-70
2022/07/26 03:59:12;;;;;;;5.65;4.57;;;19.80;94.10;;;;;;4936152;29;20723;-70
2022/07/26 04:01:42;;;;;;;7.35;4.75;;;19.80;94.00;;;;;;4942727;28;20071;-70
2022/07/26 04:04:08;;;;;;;7.45;4.82;;;19.80;94.10;;;;;;4939754;28;20032;-70
2022/07/26 04:06:35;;;;;;;8.55;4.75;;;19.80;94.10;;;;;;4941299;28;20023;-70
2022/07/26 04:09:01;;;;;;;7.00;5.53;;;19.80;94.30;;;;;;4939933;29;20190;-70
2022/07/26 04:11:27;;;;;;;6.38;4.65;;;19.70;94.40;;;;;;4941232;28;20038;-71
2022/07/26 04:13:53;;;;;;;10.85;5.53;;;19.80;94.40;;;;;;4936065;28;20020;-71
2022/07/26 04:16:19;;;;;;;6.93;5.60;;;19.80;94.30;;;;;;4933714;29;20040;-70
2022/07/26 04:18:44;;;;;;;7.38;4.80;;;19.80;94.20;;;;;;4941483;29;20042;-70
2022/07/26 04:21:10;;;;;;;4.82;4.15;;;19.80;94.20;;;;;;4943294;28;20042;-71
2022/07/26 04:23:36;;;;;;;7.50;4.72;;;19.80;94.10;;;;;;4943162;28;20035;-70
2022/07/26 04:26:02;;;;;;;7.35;4.93;;;19.80;94.10;;;;;;4939974;28;20503;-71
2022/07/26 04:28:28;;;;;;;6.18;4.47;;;19.80;94.00;;;;;;4939007;29;20073;-70
2022/07/26 04:30:58;;;;;;;4.93;4.35;;;19.80;93.90;;;;;;4939474;28;20114;-70
2022/07/26 04:33:24;;;;;;;7.38;4.70;;;19.80;93.80;;;;;;4935170;29;20108;-70
2022/07/26 04:35:50;;;;;;;5.90;4.45;;;19.80;93.80;;;;;;4933602;29;20037;-70
2022/07/26 04:38:16;;;;;;;6.82;4.55;;;19.80;93.70;;;;;;4940613;29;20035;-70
2022/07/26 04:40:42;;;;;;;6.38;4.50;;;19.80;93.80;;;;;;4942017;28;20033;-70
2022/07/26 04:43:09;;;;;;;8.10;4.57;;;19.80;93.80;;;;;;4938496;28;20480;-70
2022/07/26 04:45:34;;;;;;;4.88;4.40;;;19.80;93.90;;;;;;4939413;28;20085;-70
2022/07/26 04:48:00;;;;;;;5.10;4.30;;;19.80;93.90;;;;;;4936587;28;20069;-70
2022/07/26 04:50:29;;;;;;;5.72;4.32;;;19.90;93.80;;;;;;4937339;28;20032;-70
2022/07/26 04:52:54;;;;;;;7.78;4.63;;;19.90;93.70;;;;;;4934206;29;20035;-70
2022/07/26 04:55:21;;;;;;;5.35;4.10;;;19.90;93.70;;;;;;4934924;29;20053;-70
2022/07/26 04:57:47;;;;;;;4.55;3.63;;;20.00;93.60;;;;;;4943596;28;20039;-71
2022/07/26 05:00:15;;;;;;;5.10;3.97;;;20.00;93.50;;;;;;4945364;28;20036;-70
2022/07/26 05:02:41;;;;;;;7.03;4.53;;;20.10;93.40;;;;;;4944861;28;20019;-70
2022/07/26 05:05:07;;;;;;;6.25;3.72;;;20.10;93.20;;;;;;4941972;28;20095;-70
2022/07/26 05:08:04;;;;;;;8.60;3.40;;;20.10;92.90;;;;;;4943007;28;20559;-71
2022/07/26 05:10:34;;;;;;;;;;;20.10;92.30;;;;;;4944766;28;20244;-70
2022/07/26 05:13:02;;;;;;;4.72;3.10;;;20.10;92.30;;;;;;4937456;28;19921;-70
2022/07/26 05:15:29;;;;;;;6.63;3.28;;;20.10;92.30;;;;;;4943146;29;20182;-70
2022/07/26 05:17:59;;;;;;;5.40;3.80;;;20.10;92.40;;;;;;4946547;28;20035;-70
2022/07/26 05:20:26;;;;;;;6.70;3.60;;;20.20;91.80;;;;;;4944883;28;20916;-70
2022/07/26 05:22:51;;;;;;;7.07;3.67;;;20.20;91.70;;;;;;4945331;28;20047;-70
2022/07/26 05:25:17;;;;;;;8.38;3.72;;;20.20;91.90;;;;;;4940757;29;20039;-70
2022/07/26 05:27:43;;;;;;;5.60;2.80;;;20.30;91.50;;;;;;4941905;29;20042;-70
2022/07/26 05:30:09;;;;;;;10.98;3.92;;;20.20;91.50;;;;;;4940792;28;20031;-70
2022/07/26 05:32:35;;;;;;;5.55;3.47;;;20.40;91.20;;;;;;4939289;29;20090;-70
2022/07/26 05:35:01;;;;;;;4.85;3.20;;;20.40;91.20;;;;;;4942967;29;20043;-70
2022/07/26 05:37:27;;;;;;;10.25;3.63;;;20.50;90.90;;;;;;4945071;29;20039;-70
2022/07/26 05:39:53;;;;;;;7.40;3.00;;;20.50;90.80;;;;;;4946042;28;20055;-70
2022/07/26 05:42:18;;;;;;;4.22;2.55;;;20.60;90.30;;;;;;4941303;29;20031;-70
2022/07/26 05:44:44;;;;;;;5.63;3.03;;;20.60;90.60;;;;;;4940626;29;20222;-70
2022/07/26 05:47:10;;;;;;;6.28;3.00;;;20.60;90.70;;;;;;4938082;28;20106;-69
2022/07/26 05:49:36;;;;;;;6.03;2.80;;;20.70;90.90;;;;;;4939461;28;20700;-70
2022/07/26 05:52:02;;;;;;;9.90;3.42;;;20.80;90.70;;;;;;4934320;28;20035;-71
2022/07/26 05:54:28;;;;;;;7.70;2.15;;;20.90;90.30;;;;;;4944727;29;20031;-70
2022/07/26 05:56:53;;;;;;;5.60;2.40;;;20.90;89.60;;;;;;4943927;29;20084;-70
2022/07/26 05:59:19;;;;;;;11.75;3.33;;;21.00;89.70;;;;;;4942002;29;20032;-70
2022/07/26 06:01:45;;;;;;;10.48;2.72;;;21.20;87.50;;;;;;4941810;28;20035;-70
2022/07/26 06:04:11;;;;;;;5.70;2.80;;;21.20;87.00;;;;;;4938458;28;20044;-70
2022/07/26 06:06:37;;;;;;;3.90;2.45;;;21.30;86.20;;;;;;4940190;29;20130;-70
2022/07/26 06:09:03;;;;;;;7.30;2.45;;;21.40;85.20;;;;;;4935431;28;20042;-70
2022/07/26 06:11:29;;;;;;;5.40;2.25;;;21.50;85.30;;;;;;4943958;28;20242;-70
2022/07/26 06:13:54;;;;;;;3.13;1.90;;;21.50;85.20;;;;;;4944802;28;20511;-70
2022/07/26 06:16:20;;;;;;;4.95;2.30;;;21.60;85.50;;;;;;4942764;29;20532;-70
2022/07/26 06:18:46;;;;;;;8.70;2.10;;;21.70;84.60;;;;;;4942786;28;20039;-71
2022/07/26 06:21:12;;;;;;;4.55;2.28;;;21.70;83.60;;;;;;4941710;28;20428;-71
2022/07/26 06:23:37;;;;;;;6.40;2.05;;;21.80;83.10;;;;;;4942949;28;20028;-71
2022/07/26 06:26:04;;;;;;;7.15;2.00;;;21.80;82.90;;;;;;4936339;29;20036;-70
2022/07/26 06:28:30;;;;;;;4.72;2.00;;;21.90;81.20;;;;;;4938647;29;20035;-70
2022/07/26 06:30:56;;;;;;;7.78;2.30;;;21.90;81.20;;;;;;4941650;28;20031;-70
2022/07/26 06:33:21;;;;;;;6.07;2.33;;;22.00;80.80;;;;;;4943118;28;20059;-70
2022/07/26 06:35:47;;;;;;;5.03;2.05;;;22.00;80.40;;;;;;4944091;28;20038;-71
2022/07/26 06:38:13;;;;;;;4.63;2.38;;;22.00;80.10;;;;;;4942072;29;20480;-70
2022/07/26 06:40:39;;;;;;;11.25;2.75;;;22.00;79.90;;;;;;4942681;28;20571;-70
2022/07/26 06:43:04;;;;;;;4.53;2.05;;;22.10;79.00;;;;;;4938907;29;20034;-71
2022/07/26 06:45:31;;;;;;;7.30;2.08;;;22.10;78.40;;;;;;4936492;29;20042;-70
2022/07/26 06:47:57;;;;;;;4.40;1.73;;;22.10;78.10;;;;;;4935543;28;20039;-70
2022/07/26 06:50:23;;;;;;;5.95;2.25;;;22.20;78.90;;;;;;4943608;28;20028;-70
2022/07/26 06:52:49;;;;;;;5.32;1.88;;;22.20;78.10;;;;;;4942910;28;20034;-71
2022/07/26 06:55:15;;;;;;;7.38;2.38;;;22.20;78.50;;;;;;4941179;28;20582;-70
2022/07/26 06:57:41;;;;;;;4.78;2.00;;;22.20;78.40;;;;;;4941183;28;20129;-70
2022/07/26 07:00:09;;;;;;;6.40;2.13;;;22.30;77.60;;;;;;4937679;28;20051;-70
2022/07/26 07:02:35;;;;;;;7.72;2.08;;;22.30;77.60;;;;;;4938704;28;20025;-70
2022/07/26 07:05:01;;;;;;;8.85;2.65;;;22.30;77.70;;;;;;4935460;28;20031;-71
2022/07/26 07:07:26;;;;;;;6.15;2.00;;;22.40;77.40;;;;;;4936676;29;20059;-70
2022/07/26 07:09:52;;;;;;;9.38;2.53;;;22.40;76.90;;;;;;4943812;28;20035;-71
2022/07/26 07:12:18;;;;;;;5.97;2.47;;;22.50;75.70;;;;;;4941619;29;20040;-71
2022/07/26 07:14:44;;;;;;;10.57;2.47;;;22.50;75.70;;;;;;4941860;29;20039;-71
2022/07/26 07:17:10;;;;;;;8.02;2.35;;;22.50;75.90;;;;;;4937479;29;20039;-70
2022/07/26 07:19:37;;;;;;;6.65;2.25;;;22.60;75.70;;;;;;4944354;28;20031;-70
2022/07/26 07:22:04;;;;;;;6.35;2.47;;;22.60;74.70;;;;;;4934970;29;20609;-70
2022/07/26 07:24:30;;;;;;;7.47;1.92;;;22.70;75.20;;;;;;4937162;29;20618;-71
2022/07/26 07:26:55;;;;;;;4.70;1.90;;;22.80;75.30;;;;;;4940408;28;20035;-70
2022/07/26 07:29:21;;;;;;;5.75;2.00;;;22.90;74.50;;;;;;4942632;28;20055;-70
2022/07/26 07:31:47;;;;;;;5.53;2.00;;;23.00;74.30;;;;;;4942370;28;20023;-71
2022/07/26 07:34:14;;;;;;;5.15;1.60;;;23.10;74.00;;;;;;4939479;28;20032;-71
2022/07/26 07:36:40;;;;;;;6.38;1.67;;;23.20;72.30;;;;;;4939631;28;20811;-71
2022/07/26 07:39:06;;;;;;;2.90;1.33;;;23.30;71.40;;;;;;4939058;28;20183;-70
2022/07/26 07:41:33;;;;;;;6.97;1.52;;;23.40;71.10;;;;;;4937418;28;20114;-70
2022/07/26 07:43:59;;;;;;;7.50;1.50;;;23.40;71.00;;;;;;4934015;28;20556;-70
2022/07/26 07:46:26;;;;;;;3.42;1.42;;;23.50;70.80;;;;;;4938670;29;20841;-71
2022/07/26 07:48:52;;;;;;;4.97;1.85;;;23.50;70.90;;;;;;4942763;29;20046;-70
2022/07/26 07:51:18;;;;;;;5.53;1.60;;;23.50;70.70;;;;;;4940250;28;20463;-71
2022/07/26 07:53:44;;;;;;;7.45;2.47;;;23.60;70.40;;;;;;4940311;28;20562;-71
2022/07/26 07:56:10;;;;;;;9.20;1.80;;;23.70;70.50;;;;;;4937163;28;20118;-70
2022/07/26 07:58:36;;;;;;;8.65;2.75;;;23.80;69.20;;;;;;4938077;28;20034;-70
2022/07/26 08:01:02;;;;;;;6.53;2.15;;;23.80;69.50;;;;;;4934430;28;20032;-71
2022/07/26 08:03:27;;;;;;;8.90;2.20;;;23.90;69.30;;;;;;4934835;29;20031;-71
2022/07/26 08:05:53;;;;;;;6.65;2.33;;;24.00;67.80;;;;;;4938765;28;20034;-71
2022/07/26 08:08:19;;;;;;;7.68;2.30;;;24.10;67.40;;;;;;4940738;29;20043;-70
2022/07/26 08:10:45;;;;;;;4.97;1.40;;;24.20;68.20;;;;;;4940552;28;20027;-71
2022/07/26 08:13:11;;;;;;;3.42;1.20;;;24.30;67.10;;;;;;4937006;28;20035;-71
2022/07/26 08:15:37;;;;;;;3.92;1.60;;;24.40;65.10;;;;;;4938868;28;20038;-70
2022/07/26 08:18:02;;;;;;;3.28;1.30;;;24.50;65.00;;;;;;4934878;28;20048;-71
2022/07/26 08:20:28;;;;;;;4.28;1.30;;;24.50;63.60;;;;;;4938891;28;20051;-71
2022/07/26 08:22:54;;;;;;;2.78;1.08;;;24.60;64.00;;;;;;4935313;28;20064;-71
2022/07/26 08:25:20;;;;;;;4.18;1.33;;;24.60;64.20;;;;;;4941153;29;20059;-71
2022/07/26 08:27:45;;;;;;;1.92;0.93;;;24.70;64.20;;;;;;4940986;28;20885;-71
2022/07/26 08:30:11;;;;;;;2.78;1.00;;;24.90;62.00;;;;;;4940254;28;20117;-70
2022/07/26 08:32:37;;;;;;;6.68;0.88;;;25.00;62.40;;;;;;4938647;28;20727;-70
2022/07/26 08:35:04;;;;;;;2.72;0.95;;;25.00;60.30;;;;;;4936075;29;20031;-71
2022/07/26 08:37:30;;;;;;;3.38;0.80;;;25.10;61.00;;;;;;4936983;29;20588;-71
2022/07/26 08:39:55;;;;;;;2.03;0.80;;;25.20;61.40;;;;;;4934214;28;20035;-71
2022/07/26 08:42:21;;;;;;;3.28;0.80;;;25.30;60.30;;;;;;4937824;29;20059;-71
2022/07/26 08:44:48;;;;;;;3.30;0.98;;;25.50;59.50;;;;;;4942138;29;20031;-71
2022/07/26 08:47:16;;;;;;;2.90;0.90;;;25.50;59.00;;;;;;4939929;28;20066;-71
2022/07/26 08:49:42;;;;;;;3.47;1.27;;;25.50;59.10;;;;;;4940689;28;20384;-71
2022/07/26 08:52:10;;;;;;;1.23;0.60;;;25.50;58.70;;;;;;4937042;28;20519;-71
2022/07/26 08:54:40;;;;;;;2.92;0.88;;;25.60;58.80;;;;;;4940020;28;20443;-70
2022/07/26 08:57:06;;;;;;;5.32;0.90;;;25.70;58.80;;;;;;4934855;28;20040;-70
2022/07/26 08:59:32;;;;;;;1.75;0.80;;;25.80;59.10;;;;;;4937892;28;20038;-71
2022/07/26 09:02:00;;;;;;;4.88;0.77;;;25.80;57.80;;;;;;4938530;29;20042;-70
2022/07/26 09:04:28;;;;;;;6.10;1.13;;;25.80;58.10;;;;;;4940617;28;20028;-70
2022/07/26 09:07:17;;;;;;;3.70;0.90;;;25.70;58.80;;;;;;4936245;29;20210;-70
2022/07/26 09:10:00;;;;;;;3.45;0.95;;;25.60;58.40;;;;;;4939214;28;20067;-71
2022/07/26 09:12:27;;;;;;;5.68;1.00;;;25.50;58.40;;;;;;4936713;29;20031;-71
2022/07/26 09:14:54;;;;;;;4.20;1.33;;;25.30;58.60;;;;;;4935502;28;20577;-70
2022/07/26 09:17:22;;;;;;;6.22;1.38;;;25.20;59.40;;;;;;4933417;29;20032;-71
2022/07/26 09:20:08;;;;;;;2.05;0.95;;;25.10;60.50;;;;;;4934889;28;20027;-71
2022/07/26 09:22:34;;;;;;;;;;;25.10;61.10;;;;;;4941608;29;20106;-71
2022/07/26 09:25:00;;;;;;;3.40;1.10;;;25.20;60.60;;;;;;4940609;28;19921;-71
2022/07/26 09:27:35;;;;;;;3.67;1.45;;;25.30;60.00;;;;;;4939509;29;20039;-71
2022/07/26 09:30:06;;;;;;;3.30;1.00;;;25.50;60.20;;;;;;4939441;28;20526;-71
2022/07/26 09:32:32;;;;;;;5.32;1.20;;;25.80;59.70;;;;;;4938003;28;20039;-71
2022/07/26 09:35:15;;;;;;;6.75;1.13;;;26.00;59.00;;;;;;4935185;28;20071;-71
2022/07/26 09:37:42;;;;;;;3.00;1.10;;;26.10;58.40;;;;;;4936167;29;20036;-71
2022/07/26 09:40:16;;;;;;;2.10;1.02;;;26.10;58.00;;;;;;4939806;28;20038;-71
2022/07/26 09:43:01;;;;;;;4.00;0.82;;;26.00;57.70;;;;;;4941724;28;20031;-71
2022/07/26 09:45:29;;;;;;;3.42;1.10;;;25.80;58.20;;;;;;4942810;28;20114;-71
2022/07/26 09:47:55;;;;;;;2.97;1.20;;;25.80;59.00;;;;;;4942239;28;20049;-71
2022/07/26 09:50:26;;;;;;;2.90;1.20;;;25.60;59.10;;;;;;4940864;28;20047;-71
2022/07/26 09:53:08;;;;;;;3.13;1.30;;;25.50;59.80;;;;;;4939181;29;20042;-71
2022/07/26 09:55:55;;;;;;;4.68;1.02;;;25.40;59.60;;;;;;4938882;29;20062;-70
2022/07/26 09:58:22;;;;;;;3.67;1.30;;;25.30;60.20;;;;;;4940930;29;20115;-71
2022/07/26 10:00:48;;;;;;;2.88;1.10;;;25.20;60.60;;;;;;4944950;28;20035;-70
2022/07/26 10:03:14;;;;;;;4.72;1.25;;;25.10;61.30;;;;;;4942896;29;20035;-71
2022/07/26 10:05:41;;;;;;;4.05;1.05;;;25.10;61.60;;;;;;4945258;29;20034;-71
2022/07/26 10:08:07;;;;;;;5.63;1.10;;;25.10;61.60;;;;;;4939408;29;20039;-71
2022/07/26 10:10:45;;;;;;;3.63;1.10;;;25.10;61.40;;;;;;4940963;28;20459;-70
2022/07/26 10:13:11;;;;;;;4.78;1.20;;;25.20;60.90;;;;;;4936541;29;20044;-70
2022/07/26 10:15:45;;;;;;;5.93;1.10;;;25.20;61.10;;;;;;4938385;28;20098;-71
2022/07/26 10:18:36;;;;;;;2.78;1.27;;;25.20;61.50;;;;;;4942592;29;20265;-71
2022/07/26 10:21:14;;;;;;;4.72;1.20;;;25.30;61.30;;;;;;4941083;28;20027;-71
2022/07/26 10:23:45;;;;;;;2.72;1.08;;;25.40;60.60;;;;;;4939192;29;20035;-71
2022/07/26 10:26:32;;;;;;;4.38;1.55;;;25.40;60.70;;;;;;4942043;28;20107;-71
2022/07/26 10:29:16;;;;;;;4.00;1.23;;;25.50;61.10;;;;;;4936887;28;20036;-71
2022/07/26 10:31:44;;;;;;;2.92;1.20;;;25.60;60.40;;;;;;4938641;28;20035;-71
2022/07/26 10:34:27;;;;;;;3.90;0.90;;;25.80;59.00;;;;;;4935418;29;20036;-71
2022/07/26 10:37:05;;;;;;;6.50;1.10;;;25.70;59.60;;;;;;4945285;28;20482;-70
2022/07/26 10:39:31;;;;;;;2.58;1.10;;;25.80;60.00;;;;;;4943391;28;20482;-71
2022/07/26 10:41:59;;;;;;;3.22;1.25;;;25.90;59.40;;;;;;4942160;28;20031;-71
2022/07/26 10:44:28;;;;;;;3.85;1.27;;;26.10;58.60;;;;;;4940975;29;20142;-71
2022/07/26 10:47:00;;;;;;;2.40;1.15;;;26.30;58.00;;;;;;4940017;28;20038;-71
2022/07/26 10:49:29;;;;;;;3.85;0.90;;;26.30;58.50;;;;;;4939176;29;20269;-71
2022/07/26 10:52:09;;;;;;;5.70;1.05;;;26.20;57.80;;;;;;4935670;28;20035;-71
2022/07/26 10:54:55;;;;;;;2.70;0.80;;;26.20;56.30;;;;;;4941662;29;20519;-71
2022/07/26 10:57:22;;;;;;;4.25;1.20;;;26.10;57.60;;;;;;4942421;29;20147;-71
2022/07/26 10:59:48;;;;;;;3.28;1.17;;;26.10;57.90;;;;;;4942663;28;20324;-71
2022/07/26 11:02:18;;;;;;;6.80;1.20;;;26.10;57.90;;;;;;4940005;28;20167;-70
2022/07/26 11:04:44;;;;;;;8.45;1.05;;;26.00;58.10;;;;;;4941141;28;20074;-71
2022/07/26 11:07:11;;;;;;;5.15;1.20;;;26.10;58.60;;;;;;4936623;29;20484;-71
2022/07/26 11:09:38;;;;;;;3.83;1.35;;;26.50;57.70;;;;;;4939155;28;20031;-71
2022/07/26 11:12:17;;;;;;;4.70;1.00;;;26.80;57.30;;;;;;4935827;28;20035;-70
2022/07/26 11:14:43;;;;;;;5.65;1.05;;;26.90;56.90;;;;;;4944301;29;20583;-71
2022/07/26 11:17:31;;;;;;;5.25;1.42;;;27.00;56.60;;;;;;4943985;29;20491;-71
2022/07/26 11:19:57;;;;;;;4.35;1.40;;;27.00;55.90;;;;;;4939405;28;20043;-71
2022/07/26 11:22:31;;;;;;;2.03;1.30;;;27.00;54.40;;;;;;4939448;29;20111;-71
2022/07/26 11:24:57;;;;;;;2.75;1.10;;;27.10;54.30;;;;;;4938218;29;20058;-70
2022/07/26 11:27:23;;;;;;;2.42;1.10;;;27.20;54.70;;;;;;4937610;29;20179;-71
2022/07/26 11:29:48;;;;;;;3.78;1.10;;;27.30;54.10;;;;;;4936943;29;20035;-71
2022/07/26 11:32:18;;;;;;;1.77;1.00;;;27.40;53.90;;;;;;4939790;29;20031;-71
2022/07/26 11:34:44;;;;;;;2.20;1.10;;;27.50;54.60;;;;;;4943014;28;20099;-70
2022/07/26 11:37:10;;;;;;;3.47;1.38;;;27.60;54.10;;;;;;4941380;29;20082;-71
2022/07/26 11:39:36;;;;;;;5.65;1.15;;;27.50;54.10;;;;;;4940847;28;20027;-71
2022/07/26 11:42:09;;;;;;;4.07;1.20;;;27.40;54.60;;;;;;4937837;28;20054;-70
2022/07/26 11:44:35;;;;;;;3.47;1.25;;;27.30;54.10;;;;;;4939096;29;20114;-71
2022/07/26 11:47:12;;;;;;;5.15;1.38;;;27.20;54.20;;;;;;4935329;28;20032;-70
2022/07/26 11:49:38;;;;;;;1.55;1.02;;;27.10;54.70;;;;;;4936291;29;20023;-71
2022/07/26 11:52:04;;;;;;;7.18;1.40;;;26.90;55.10;;;;;;4939748;29;20124;-69
2022/07/26 11:54:32;;;;;;;5.35;1.02;;;26.70;56.10;;;;;;4939166;29;20066;-71
2022/07/26 11:57:03;;;;;;;6.25;0.98;;;26.20;57.80;;;;;;4940241;29;20042;-70
2022/07/26 11:59:32;;;;;;;1.90;0.93;;;25.60;59.90;;;;;;4938626;29;20058;-71
2022/07/26 12:01:58;;;;;;;3.65;1.00;;;25.20;61.60;;;;;;4936845;28;20090;-70
2022/07/26 12:04:30;;;;;;;1.75;0.90;;;25.00;63.30;;;;;;4935525;29;20035;-71
2022/07/26 12:06:57;;;;;;;3.33;0.73;;;24.80;63.60;;;;;;4934404;28;20031;-71
2022/07/26 12:09:45;;;;;;;2.10;0.77;;;24.60;64.50;;;;;;4934606;29;20035;-71
2022/07/26 12:12:26;;;;;;;5.25;0.85;;;24.50;65.30;;;;;;4939301;29;20061;-71
2022/07/26 12:14:59;;;;;;;2.65;0.90;;;24.40;66.20;;;;;;4941578;28;20039;-71
2022/07/26 12:17:26;;;;;;;2.42;1.02;;;24.30;66.70;;;;;;4939068;29;20477;-70
2022/07/26 12:19:52;;;;;;;1.10;0.80;;;24.10;67.10;;;;;;4938501;28;20067;-70
2022/07/26 12:22:20;;;;;;;1.77;0.60;;;24.00;67.80;;;;;;4937721;29;20040;-71
2022/07/26 12:24:57;;;;;;;2.45;0.80;;;23.90;68.20;;;;;;4936530;28;20044;-70
2022/07/26 12:27:29;;;;;;;4.60;1.08;;;23.80;68.40;;;;;;4934832;29;20043;-70
2022/07/26 12:30:13;;;;;;;1.70;0.77;;;23.70;68.50;;;;;;4939060;28;20031;-71
2022/07/26 12:32:43;;;;;;;1.30;0.60;;;23.60;68.60;;;;;;4940655;29;20065;-71
2022/07/26 12:35:11;;;;;;;0.85;0.50;;;23.60;68.50;;;;;;4938759;29;20149;-70
2022/07/26 12:37:46;;;;;;;0.43;0.35;;;23.50;67.20;;;;;;4938918;28;20027;-71
2022/07/26 12:40:14;;;;;;;0.55;0.50;;;23.40;66.80;;;;;;4935229;28;20035;-70
2022/07/26 12:42:49;;;;;;;1.02;0.50;;;23.40;66.10;;;;;;4935794;29;20027;-70
2022/07/26 12:45:18;;;;;;;2.30;0.30;;;23.30;66.10;;;;;;4934022;29;20046;-70
2022/07/26 12:47:46;;;;;;;0.80;0.30;;;23.30;65.00;;;;;;4940308;28;20109;-70
2022/07/26 12:50:13;;;;;;;0.63;0.30;;;23.10;66.00;;;;;;4941674;28;20043;-71
2022/07/26 12:52:39;;;;;;;1.30;0.40;;;23.10;66.90;;;;;;4941382;29;20039;-70
2022/07/26 12:55:08;;;;;;;0.50;0.22;;;23.20;67.20;;;;;;4938972;29;20035;-70